createdAt,value
2018-09-19T00:00:31.098Z,3.40
2018-09-19T00:02:59.041Z,3.57
2018-09-19T00:05:27.101Z,3.60
2018-09-19T00:07:55.111Z,3.40
2018-09-19T00:10:23.257Z,3.47
2018-09-19T00:12:51.325Z,2.87
2018-09-19T00:15:19.390Z,3.77
2018-09-19T00:17:47.276Z,3.50
2018-09-19T00:20:15.233Z,3.47
2018-09-19T00:22:43.128Z,3.83
2018-09-19T00:25:11.055Z,3.23
2018-09-19T00:27:39.137Z,3.20
2018-09-19T00:30:07.002Z,2.87
2018-09-19T00:32:34.973Z,3.50
2018-09-19T00:35:03.030Z,2.97
2018-09-19T00:37:30.925Z,3.47
2018-09-19T00:39:58.785Z,3.93
2018-09-19T00:42:26.673Z,3.20
2018-09-19T00:44:54.710Z,3.17
2018-09-19T00:47:22.780Z,3.37
2018-09-19T00:49:50.846Z,4.13
2018-09-19T00:52:18.929Z,3.80
2018-09-19T00:54:46.923Z,4.93
2018-09-19T00:57:14.808Z,3.00
2018-09-19T00:59:42.684Z,3.33
2018-09-19T01:02:10.569Z,3.30
2018-09-19T01:04:38.657Z,3.83
2018-09-19T01:07:06.742Z,3.13
2018-09-19T01:09:34.794Z,3.23
2018-09-19T01:12:02.876Z,3.37
2018-09-19T01:14:30.958Z,3.00
2018-09-19T01:16:59.013Z,3.63
2018-09-19T01:19:26.905Z,4.53
2018-09-19T01:21:54.773Z,3.93
2018-09-19T01:24:22.938Z,3.20
2018-09-19T01:26:50.991Z,3.33
2018-09-19T01:29:18.876Z,3.23
2018-09-19T01:31:46.757Z,2.90
2018-09-19T01:34:14.648Z,3.23
2018-09-19T01:36:42.678Z,3.00
2018-09-19T01:39:10.750Z,4.13
2018-09-19T01:41:38.805Z,3.97
2018-09-19T01:44:06.688Z,3.43
2018-09-19T01:46:34.560Z,3.00
2018-09-19T01:49:02.464Z,3.17
2018-09-19T01:51:30.476Z,3.37
2018-09-19T01:53:58.369Z,4.40
2018-09-19T01:56:26.262Z,3.07
2018-09-19T01:58:54.392Z,3.23
2018-09-19T02:01:22.446Z,3.27
2018-09-19T02:03:50.543Z,3.30
2018-09-19T02:06:18.408Z,4.90
2018-09-19T02:08:46.299Z,4.23
2018-09-19T02:11:14.439Z,3.07
2018-09-19T02:13:42.518Z,3.00
2018-09-19T02:16:10.570Z,3.07
2018-09-19T02:18:38.457Z,3.10
2018-09-19T02:21:06.409Z,3.40
2018-09-19T02:23:34.492Z,3.50
2018-09-19T02:26:02.853Z,3.27
2018-09-19T02:28:30.786Z,4.00
2018-09-19T02:30:58.693Z,3.47
2018-09-19T02:33:26.777Z,4.43
2018-09-19T02:35:54.828Z,3.97
2018-09-19T02:38:22.929Z,3.90
2018-09-19T02:40:50.978Z,3.13
2018-09-19T02:43:18.869Z,3.93
2018-09-19T02:45:46.810Z,4.53
2018-09-19T02:48:14.692Z,3.77
2018-09-19T02:50:42.645Z,3.40
2018-09-19T02:53:10.743Z,3.13
2018-09-19T02:55:38.621Z,3.10
2018-09-19T02:58:06.503Z,2.67
2018-09-19T03:00:34.404Z,3.67
2018-09-19T03:03:02.389Z,3.00
2018-09-19T03:05:30.326Z,3.03
2018-09-19T03:07:58.226Z,3.80
2018-09-19T03:10:26.106Z,3.40
2018-09-19T03:12:53.984Z,2.90
2018-09-19T03:15:23.125Z,2.70
2018-09-19T03:17:51.207Z,3.00
2018-09-19T03:20:19.015Z,3.33
2018-09-19T03:22:46.883Z,3.40
2018-09-19T03:25:15.046Z,4.07
2018-09-19T03:27:43.111Z,2.73
2018-09-19T03:30:10.989Z,3.30
2018-09-19T03:32:38.873Z,2.87
2018-09-19T03:35:06.977Z,3.20
2018-09-19T03:37:35.085Z,3.13
2018-09-19T03:40:07.663Z,3.20
2018-09-19T03:42:35.824Z,3.27
2018-09-19T03:45:04.058Z,3.53
2018-09-19T03:47:31.920Z,2.83
2018-09-19T03:50:00.065Z,3.17
2018-09-19T03:52:28.117Z,3.03
2018-09-19T03:54:56.007Z,3.40
2018-09-19T03:57:23.964Z,3.60
2018-09-19T03:59:52.046Z,3.60
2018-09-19T04:02:20.096Z,3.33
2018-09-19T04:04:47.969Z,2.80
2018-09-19T04:07:15.846Z,3.10
2018-09-19T04:09:43.733Z,3.13
2018-09-19T04:12:11.768Z,3.67
2018-09-19T04:14:39.865Z,2.87
2018-09-19T04:17:07.912Z,3.33
2018-09-19T04:19:35.993Z,3.87
2018-09-19T04:22:04.058Z,3.37
2018-09-19T04:24:32.133Z,3.57
2018-09-19T04:27:00.005Z,3.27
2018-09-19T04:29:27.974Z,3.57
2018-09-19T04:31:55.871Z,3.70
2018-09-19T04:34:23.812Z,3.03
2018-09-19T04:36:51.686Z,3.40
2018-09-19T04:39:19.545Z,2.83
2018-09-19T04:41:47.714Z,3.23
2018-09-19T04:44:15.580Z,2.87
2018-09-19T04:46:43.554Z,3.43
2018-09-19T04:49:11.617Z,3.03
2018-09-19T04:51:40.369Z,3.17
2018-09-19T04:54:08.606Z,3.00
2018-09-19T04:56:37.334Z,4.20
2018-09-19T04:59:05.433Z,2.93
2018-09-19T05:01:33.508Z,3.07
2018-09-19T05:04:01.571Z,3.80
2018-09-19T05:06:29.653Z,3.73
2018-09-19T05:08:57.654Z,2.90
2018-09-19T05:11:25.845Z,3.47
2018-09-19T05:13:54.099Z,3.60
2018-09-19T05:16:21.978Z,3.20
2018-09-19T05:18:50.232Z,3.70
2018-09-19T05:21:18.104Z,3.00
2018-09-19T05:23:46.173Z,2.97
2018-09-19T05:26:14.228Z,3.23
2018-09-19T05:28:42.103Z,2.87
2018-09-19T05:31:10.009Z,3.23
2018-09-19T05:33:38.121Z,3.30
2018-09-19T05:36:06.221Z,3.03
2018-09-19T05:38:34.266Z,3.63
2018-09-19T05:41:02.150Z,3.90
2018-09-19T05:43:30.022Z,4.13
2018-09-19T05:45:58.190Z,3.13
2018-09-19T05:48:26.241Z,2.53
2018-09-19T05:50:54.318Z,3.60
2018-09-19T05:53:22.185Z,3.00
2018-09-19T05:55:50.205Z,2.90
2018-09-19T05:58:18.089Z,2.50
2018-09-19T06:00:46.004Z,3.30
2018-09-19T06:03:13.869Z,3.07
2018-09-19T06:05:41.828Z,3.17
2018-09-19T06:08:09.889Z,3.63
2018-09-19T06:10:37.973Z,3.67
2018-09-19T06:13:05.839Z,3.73
2018-09-19T06:15:33.725Z,2.60
2018-09-19T06:18:01.875Z,3.50
2018-09-19T06:20:29.862Z,2.90
2018-09-19T06:22:58.021Z,4.23
2018-09-19T06:25:25.872Z,5.60
2018-09-19T06:27:53.750Z,10.80
2018-09-19T06:30:21.922Z,7.13
2018-09-19T06:32:50.015Z,7.60
2018-09-19T06:35:18.059Z,6.60
2018-09-19T06:37:46.068Z,10.60
2018-09-19T06:40:14.163Z,10.53
2018-09-19T06:42:41.957Z,8.57
2018-09-19T06:45:10.038Z,7.87
2018-09-19T06:47:37.924Z,13.30
2018-09-19T06:50:07.850Z,8.93
2018-09-19T06:52:35.820Z,9.87
2018-09-19T06:55:03.861Z,10.03
2018-09-19T06:57:36.509Z,8.00
2018-09-19T07:00:04.933Z,8.40
2018-09-19T07:02:32.822Z,8.20
2018-09-19T07:05:00.753Z,7.20
2018-09-19T07:07:28.839Z,8.60
2018-09-19T07:09:56.686Z,8.77
2018-09-19T07:12:24.572Z,9.33
2018-09-19T07:14:52.713Z,8.87
2018-09-19T07:17:20.801Z,7.13
2018-09-19T07:19:48.878Z,7.87
2018-09-19T07:22:16.777Z,10.23
2018-09-19T07:24:44.711Z,8.53
2018-09-19T07:27:12.610Z,14.90
2018-09-19T07:29:40.539Z,8.30
2018-09-19T07:32:12.298Z,9.13
2018-09-19T07:34:40.369Z,5.60
2018-09-19T07:37:08.253Z,6.57
2018-09-19T07:39:36.215Z,7.53
2018-09-19T07:42:04.289Z,5.27
2018-09-19T07:44:32.164Z,5.77
2018-09-19T07:47:00.042Z,7.33
2018-09-19T07:49:28.185Z,4.23
2018-09-19T14:56:13.617Z,13.60
2018-09-19T14:58:41.602Z,24.45
2018-09-19T15:01:09.675Z,18.75
2018-09-19T15:03:37.565Z,19.23
2018-09-19T15:06:05.509Z,17.45
2018-09-19T15:08:33.573Z,19.30
2018-09-19T15:11:01.488Z,18.07
2018-09-19T15:13:29.372Z,17.70
2018-09-19T15:15:57.472Z,12.18
2018-09-19T15:18:25.542Z,16.12
2018-09-19T15:20:53.654Z,19.12
2018-09-19T15:23:21.705Z,10.20
2018-09-19T15:25:49.593Z,16.27
2018-09-19T15:28:17.509Z,12.75
2018-09-19T15:30:45.594Z,14.18
2018-09-19T15:33:13.486Z,12.45
2018-09-19T15:35:41.375Z,9.40
2018-09-19T15:38:09.301Z,8.83
2018-09-19T15:40:37.262Z,8.60
2018-09-19T15:43:05.317Z,9.65
2018-09-19T15:45:33.410Z,6.65
2018-09-19T15:48:01.294Z,8.30
2018-09-19T15:50:31.224Z,8.58
2018-09-19T15:52:59.090Z,9.75
2018-09-19T15:55:29.384Z,9.08
2018-09-19T15:57:57.429Z,8.40
2018-09-19T16:00:25.753Z,12.15
2018-09-19T16:02:53.822Z,10.93
2018-09-19T16:05:21.965Z,6.20
2018-09-19T16:07:49.889Z,7.62
2018-09-19T16:10:17.806Z,6.40
2018-09-19T16:12:45.674Z,6.00
2018-09-19T16:15:13.554Z,5.60
2018-09-19T16:17:41.416Z,7.15
2018-09-19T16:20:09.573Z,6.62
2018-09-19T16:22:37.521Z,8.83
2018-09-19T16:25:05.613Z,9.63
2018-09-19T16:27:33.661Z,5.92
2018-09-19T16:30:01.754Z,6.15
2018-09-19T16:32:29.818Z,5.90
2018-09-19T16:34:57.714Z,7.42
2018-09-19T16:37:25.641Z,6.87
2018-09-19T16:39:53.724Z,4.95
2018-09-19T16:42:21.593Z,6.75
2018-09-19T16:44:49.561Z,5.85
2018-09-19T16:47:17.439Z,5.47
2018-09-19T16:49:45.401Z,6.30
2018-09-19T16:52:14.664Z,4.37
2018-09-19T16:54:42.554Z,7.03
2018-09-19T16:57:10.537Z,6.65
2018-09-19T16:59:38.585Z,7.95
2018-09-19T17:02:06.468Z,6.45
2018-09-19T17:04:34.349Z,6.03
2018-09-19T17:07:02.516Z,5.37
2018-09-19T17:09:30.544Z,5.60
2018-09-19T17:11:58.649Z,6.95
2018-09-19T17:14:26.713Z,6.05
2018-09-19T17:16:54.792Z,5.30
2018-09-19T17:19:22.766Z,4.08
2018-09-19T17:21:50.937Z,6.12
2018-09-19T17:24:19.005Z,5.78
2018-09-19T17:26:47.073Z,6.72
2018-09-19T17:29:15.138Z,5.72
2018-09-19T17:31:43.217Z,3.92
2018-09-19T17:34:11.088Z,3.80
2018-09-19T17:36:39.069Z,7.40
2018-09-19T17:39:08.365Z,5.67
2018-09-19T17:41:36.249Z,5.58
2018-09-19T17:44:04.182Z,4.85
2018-09-19T17:46:32.069Z,4.37
2018-09-19T17:49:00.011Z,5.65
2018-09-19T17:51:27.897Z,5.62
2018-09-19T17:53:55.850Z,4.53
2018-09-19T17:56:23.854Z,5.00
2018-09-19T17:58:51.986Z,3.65
2018-09-19T18:01:20.073Z,4.42
2018-09-19T18:03:48.053Z,3.95
2018-09-19T18:06:16.286Z,5.30
2018-09-19T18:08:44.278Z,3.70
2018-09-19T18:11:12.157Z,3.77
2018-09-19T18:13:40.337Z,5.87
2018-09-19T18:16:08.501Z,3.40
2018-09-19T18:18:36.553Z,3.30
2018-09-19T18:21:04.652Z,4.47
2018-09-19T18:23:32.706Z,3.20
2018-09-19T18:26:00.784Z,3.40
2018-09-19T18:28:28.764Z,5.10
2018-09-19T18:30:56.664Z,3.65
2018-09-19T18:33:24.544Z,3.98
2018-09-19T18:35:52.442Z,4.50
2018-09-19T18:38:20.545Z,3.23
2018-09-19T18:40:48.594Z,4.30
2018-09-19T18:43:16.469Z,3.83
2018-09-19T18:45:44.426Z,4.03
2018-09-19T18:48:12.305Z,4.30
2018-09-19T18:50:40.214Z,4.03
2018-09-19T18:53:08.336Z,3.13
2018-09-19T18:55:36.397Z,3.87
2018-09-19T18:58:04.277Z,4.20
2018-09-19T19:00:32.141Z,5.93
2018-09-19T19:03:00.319Z,3.27
2018-09-19T19:05:28.374Z,3.53
2018-09-19T19:07:56.308Z,3.03
2018-09-19T19:10:24.206Z,5.07
2018-09-19T19:12:52.293Z,3.73
2018-09-19T19:15:20.353Z,3.50
2018-09-19T19:17:48.440Z,3.13
2018-09-19T19:20:16.495Z,3.60
2018-09-19T19:22:44.372Z,3.33
2018-09-19T19:25:12.329Z,3.73
2018-09-19T19:27:40.413Z,3.60
2018-09-19T19:30:08.491Z,3.43
2018-09-19T19:32:36.567Z,3.50
2018-09-19T19:35:04.613Z,4.73
2018-09-19T19:37:32.506Z,4.20
2018-09-19T19:40:00.453Z,3.27
2018-09-19T19:42:28.537Z,3.67
2018-09-19T19:44:56.594Z,3.57
2018-09-19T19:47:24.476Z,3.63
2018-09-19T19:49:52.437Z,3.40
2018-09-19T19:52:20.523Z,3.63
2018-09-19T19:54:48.573Z,4.17
2018-09-19T19:57:16.656Z,3.13
2018-09-19T19:59:44.525Z,3.30
2018-09-19T20:02:12.502Z,3.53
2018-09-19T20:04:40.374Z,3.43
2018-09-19T20:07:08.342Z,3.23
2018-09-19T20:09:36.239Z,3.23
2018-09-19T20:12:04.086Z,3.10
2018-09-19T20:14:31.972Z,3.33
2018-09-19T20:16:59.982Z,3.23
2018-09-19T20:19:28.078Z,3.10
2018-09-19T20:21:56.129Z,3.30
2018-09-19T20:24:24.220Z,3.23
2018-09-19T20:26:52.089Z,4.87
2018-09-19T20:29:19.970Z,3.10
2018-09-19T20:31:48.112Z,3.37
2018-09-19T20:34:16.030Z,3.40
2018-09-19T20:36:43.936Z,3.27
2018-09-19T20:39:12.058Z,3.00
2018-09-19T20:41:39.938Z,3.40
2018-09-19T20:44:07.826Z,4.73
2018-09-19T20:46:35.922Z,3.13
2018-09-19T20:49:04.030Z,2.70
2018-09-19T20:51:31.930Z,3.67
2018-09-19T20:53:59.841Z,3.13
2018-09-19T20:56:27.898Z,3.40
2018-09-19T20:58:55.980Z,3.80
2018-09-19T21:01:24.037Z,3.37
2018-09-19T21:03:51.921Z,3.10
2018-09-19T21:06:20.262Z,2.90
2018-09-19T21:08:48.265Z,3.47
2018-09-19T21:11:16.132Z,3.50
2018-09-19T21:13:44.018Z,3.17
2018-09-19T21:16:11.889Z,2.73
2018-09-19T21:18:39.937Z,2.93
2018-09-19T21:21:07.805Z,3.63
2018-09-19T21:23:35.694Z,3.30
2018-09-19T21:26:03.649Z,3.60
2018-09-19T21:28:31.760Z,2.60
2018-09-19T21:30:59.498Z,3.43
2018-09-19T21:33:27.450Z,2.80
2018-09-19T21:35:55.437Z,3.23
2018-09-19T21:38:23.590Z,3.13
2018-09-19T21:40:51.655Z,3.37
2018-09-19T21:43:19.918Z,2.90
2018-09-19T21:45:47.801Z,3.00
2018-09-19T21:48:15.861Z,2.90
2018-09-19T21:50:43.941Z,2.77
2018-09-19T21:53:11.806Z,3.17
2018-09-19T21:55:39.694Z,3.50
2018-09-19T21:58:07.838Z,2.97
2018-09-19T22:00:35.921Z,2.73
2018-09-19T22:03:03.977Z,2.80
2018-09-19T22:05:31.868Z,2.77
2018-09-19T22:07:59.734Z,3.07
2018-09-19T22:10:28.612Z,3.03
2018-09-19T22:12:56.489Z,2.73
2018-09-19T22:15:24.661Z,2.50
2018-09-19T22:17:52.713Z,3.30
2018-09-19T22:20:20.773Z,2.80
2018-09-19T22:22:48.853Z,2.70
2018-09-19T22:25:16.940Z,3.20
2018-09-19T22:27:45.019Z,3.20
2018-09-19T22:30:13.090Z,2.67
2018-09-19T22:32:41.141Z,2.70
2018-09-19T22:35:09.137Z,2.50
2018-09-19T22:37:37.289Z,2.57
2018-09-19T22:40:05.368Z,2.80
2018-09-19T22:42:33.237Z,2.73
2018-09-19T22:45:01.117Z,3.27
2018-09-19T22:47:28.990Z,2.80
2018-09-19T22:49:57.041Z,2.60
2018-09-19T22:52:24.905Z,2.87
2018-09-19T22:54:52.781Z,2.33
2018-09-19T22:57:21.243Z,3.00
2018-09-19T22:59:49.327Z,2.77
2018-09-19T23:02:17.193Z,2.63
2018-09-19T23:04:45.165Z,3.07
2018-09-19T23:07:13.221Z,3.13
2018-09-19T23:09:41.443Z,2.67
2018-09-19T23:12:09.362Z,3.40
2018-09-19T23:14:37.441Z,2.50
2018-09-19T23:17:05.514Z,2.90
2018-09-19T23:19:33.585Z,3.37
2018-09-19T23:22:02.076Z,2.70
2018-09-19T23:24:29.970Z,2.63
2018-09-19T23:26:57.853Z,2.93
2018-09-19T23:29:25.856Z,2.70
2018-09-19T23:31:53.953Z,3.37
2018-09-19T23:34:21.814Z,3.03
2018-09-19T23:36:50.098Z,2.70
2018-09-19T23:39:18.146Z,2.53
2018-09-19T23:41:46.234Z,2.33
2018-09-19T23:44:14.097Z,2.93
2018-09-19T23:46:42.066Z,3.30
2018-09-19T23:49:09.929Z,2.87
2018-09-19T23:51:37.913Z,3.13
2018-09-19T23:54:05.968Z,2.40
2018-09-19T23:56:34.050Z,2.83
2018-09-19T23:59:02.126Z,3.00
